Terminal Aerodrome Forecast
Issued by NWS

Home | Current Version | Previous Version | Graphics & Text | Print | Product List | Glossary On
Versions: 1 2 3 4 5 6 7 8 9 10 11 12 13 14 15 16 17 18 19 20 21 22 23 24 25
978
FTUS43 KLOT 242059 AAA
TAFMDW
TAF AMD
KMDW 242059Z 2421/2524 13007KT P6SM FEW250
     FM250600 20006KT P6SM FEW250
     FM251500 22012KT P6SM SCT150 BKN250=

USA.gov is the U.S. government's official web portal to all federal, state and local government web resources and services.